sensor_id;sensor_type;location;lat;lon;timestamp;P1;durP1;ratioP1;P2;durP2;ratioP2
20458;SDS011;10388;52.314;7.938;2022-10-31T00:00:50;23.73;;;13.50;;
20458;SDS011;10388;52.314;7.938;2022-10-31T00:03:21;21.47;;;14.70;;
20458;SDS011;10388;52.314;7.938;2022-10-31T00:05:52;21.97;;;13.67;;
20458;SDS011;10388;52.314;7.938;2022-10-31T00:08:23;21.67;;;13.47;;
20458;SDS011;10388;52.314;7.938;2022-10-31T00:10:53;21.90;;;14.07;;
20458;SDS011;10388;52.314;7.938;2022-10-31T00:13:24;19.83;;;13.83;;
20458;SDS011;10388;52.314;7.938;2022-10-31T00:15:54;18.37;;;12.63;;
20458;SDS011;10388;52.314;7.938;2022-10-31T00:18:25;21.77;;;14.03;;
20458;SDS011;10388;52.314;7.938;2022-10-31T00:21:02;21.53;;;14.03;;
20458;SDS011;10388;52.314;7.938;2022-10-31T00:23:33;26.53;;;13.47;;
20458;SDS011;10388;52.314;7.938;2022-10-31T00:26:04;20.50;;;13.70;;
20458;SDS011;10388;52.314;7.938;2022-10-31T00:28:35;29.70;;;14.13;;
20458;SDS011;10388;52.314;7.938;2022-10-31T00:31:06;23.03;;;13.83;;
20458;SDS011;10388;52.314;7.938;2022-10-31T00:33:39;21.83;;;13.17;;
20458;SDS011;10388;52.314;7.938;2022-10-31T00:36:11;19.90;;;13.87;;
20458;SDS011;10388;52.314;7.938;2022-10-31T00:38:44;19.40;;;12.23;;
20458;SDS011;10388;52.314;7.938;2022-10-31T00:41:16;17.70;;;11.37;;
20458;SDS011;10388;52.314;7.938;2022-10-31T00:43:47;23.60;;;13.73;;
20458;SDS011;10388;52.314;7.938;2022-10-31T00:46:18;23.37;;;14.53;;
20458;SDS011;10388;52.314;7.938;2022-10-31T00:48:48;24.77;;;14.17;;
20458;SDS011;10388;52.314;7.938;2022-10-31T00:51:19;20.50;;;13.73;;
20458;SDS011;10388;52.314;7.938;2022-10-31T00:53:49;21.77;;;13.67;;
20458;SDS011;10388;52.314;7.938;2022-10-31T00:56:20;23.43;;;14.03;;
20458;SDS011;10388;52.314;7.938;2022-10-31T00:58:50;21.30;;;14.33;;
20458;SDS011;10388;52.314;7.938;2022-10-31T01:17:21;23.70;;;13.10;;
20458;SDS011;10388;52.314;7.938;2022-10-31T01:20:02;20.03;;;13.37;;
20458;SDS011;10388;52.314;7.938;2022-10-31T01:22:45;23.70;;;14.23;;
20458;SDS011;10388;52.314;7.938;2022-10-31T01:25:58;21.30;;;12.93;;
20458;SDS011;10388;52.314;7.938;2022-10-31T01:31:28;25.40;;;14.20;;
20458;SDS011;10388;52.314;7.938;2022-10-31T01:34:03;21.67;;;14.33;;
20458;SDS011;10388;52.314;7.938;2022-10-31T01:36:35;22.87;;;14.30;;
20458;SDS011;10388;52.314;7.938;2022-10-31T01:39:09;18.07;;;13.87;;
20458;SDS011;10388;52.314;7.938;2022-10-31T01:41:43;24.43;;;13.90;;
20458;SDS011;10388;52.314;7.938;2022-10-31T01:49:24;24.60;;;14.53;;
20458;SDS011;10388;52.314;7.938;2022-10-31T01:52:18;22.03;;;14.17;;
20458;SDS011;10388;52.314;7.938;2022-10-31T01:55:03;21.63;;;14.23;;
20458;SDS011;10388;52.314;7.938;2022-10-31T01:57:37;24.60;;;14.63;;
20458;SDS011;10388;52.314;7.938;2022-10-31T02:00:11;18.10;;;13.43;;
20458;SDS011;10388;52.314;7.938;2022-10-31T02:02:42;17.90;;;12.20;;
20458;SDS011;10388;52.314;7.938;2022-10-31T02:05:24;18.90;;;12.70;;
20458;SDS011;10388;52.314;7.938;2022-10-31T02:07:59;21.97;;;13.40;;
20458;SDS011;10388;52.314;7.938;2022-10-31T02:10:37;16.87;;;12.33;;
20458;SDS011;10388;52.314;7.938;2022-10-31T02:13:10;18.53;;;12.40;;
20458;SDS011;10388;52.314;7.938;2022-10-31T02:15:42;16.23;;;11.60;;
20458;SDS011;10388;52.314;7.938;2022-10-31T02:18:15;15.80;;;11.80;;
20458;SDS011;10388;52.314;7.938;2022-10-31T02:32:29;20.00;;;12.97;;
20458;SDS011;10388;52.314;7.938;2022-10-31T02:37:45;20.63;;;13.23;;
20458;SDS011;10388;52.314;7.938;2022-10-31T02:40:56;15.97;;;12.13;;
20458;SDS011;10388;52.314;7.938;2022-10-31T02:46:22;21.03;;;13.07;;
20458;SDS011;10388;52.314;7.938;2022-10-31T02:48:54;19.13;;;12.80;;
20458;SDS011;10388;52.314;7.938;2022-10-31T02:51:28;19.07;;;12.43;;
20458;SDS011;10388;52.314;7.938;2022-10-31T02:53:58;29.23;;;14.87;;
20458;SDS011;10388;52.314;7.938;2022-10-31T02:56:29;19.60;;;13.33;;
20458;SDS011;10388;52.314;7.938;2022-10-31T02:59:01;19.97;;;13.97;;
20458;SDS011;10388;52.314;7.938;2022-10-31T03:01:50;19.90;;;12.30;;
20458;SDS011;10388;52.314;7.938;2022-10-31T03:11:03;14.50;;;10.00;;
20458;SDS011;10388;52.314;7.938;2022-10-31T03:13:39;12.97;;;9.80;;
20458;SDS011;10388;52.314;7.938;2022-10-31T03:16:13;17.97;;;11.87;;
20458;SDS011;10388;52.314;7.938;2022-10-31T03:18:52;12.77;;;10.03;;
20458;SDS011;10388;52.314;7.938;2022-10-31T03:21:28;15.20;;;11.07;;
20458;SDS011;10388;52.314;7.938;2022-10-31T03:24:05;14.17;;;10.37;;
20458;SDS011;10388;52.314;7.938;2022-10-31T03:26:41;16.30;;;10.50;;
20458;SDS011;10388;52.314;7.938;2022-10-31T03:29:15;14.30;;;10.97;;
20458;SDS011;10388;52.314;7.938;2022-10-31T03:31:57;14.40;;;10.70;;
20458;SDS011;10388;52.314;7.938;2022-10-31T03:34:31;13.73;;;10.43;;
20458;SDS011;10388;52.314;7.938;2022-10-31T03:37:03;17.03;;;11.20;;
20458;SDS011;10388;52.314;7.938;2022-10-31T03:39:37;15.23;;;11.03;;
20458;SDS011;10388;52.314;7.938;2022-10-31T03:42:18;17.43;;;11.40;;
20458;SDS011;10388;52.314;7.938;2022-10-31T03:44:57;15.60;;;10.70;;
20458;SDS011;10388;52.314;7.938;2022-10-31T03:47:33;15.27;;;10.60;;
20458;SDS011;10388;52.314;7.938;2022-10-31T03:50:06;14.80;;;10.23;;
20458;SDS011;10388;52.314;7.938;2022-10-31T03:52:49;15.30;;;10.87;;
20458;SDS011;10388;52.314;7.938;2022-10-31T03:55:57;16.20;;;11.77;;
20458;SDS011;10388;52.314;7.938;2022-10-31T03:58:47;17.90;;;11.53;;
20458;SDS011;10388;52.314;7.938;2022-10-31T04:01:23;17.00;;;11.67;;
20458;SDS011;10388;52.314;7.938;2022-10-31T04:03:57;17.47;;;11.87;;
20458;SDS011;10388;52.314;7.938;2022-10-31T04:06:28;19.47;;;11.53;;
20458;SDS011;10388;52.314;7.938;2022-10-31T04:09:02;15.93;;;10.53;;
20458;SDS011;10388;52.314;7.938;2022-10-31T04:11:36;16.37;;;10.97;;
20458;SDS011;10388;52.314;7.938;2022-10-31T04:14:12;20.10;;;11.97;;
20458;SDS011;10388;52.314;7.938;2022-10-31T04:16:42;19.90;;;11.73;;
20458;SDS011;10388;52.314;7.938;2022-10-31T04:19:14;16.67;;;11.67;;
20458;SDS011;10388;52.314;7.938;2022-10-31T04:21:45;18.53;;;11.90;;
20458;SDS011;10388;52.314;7.938;2022-10-31T04:24:15;17.93;;;10.80;;
20458;SDS011;10388;52.314;7.938;2022-10-31T04:26:46;16.43;;;11.20;;
20458;SDS011;10388;52.314;7.938;2022-10-31T04:29:16;16.43;;;11.20;;
20458;SDS011;10388;52.314;7.938;2022-10-31T04:31:47;17.30;;;10.33;;
20458;SDS011;10388;52.314;7.938;2022-10-31T04:34:17;17.57;;;10.50;;
20458;SDS011;10388;52.314;7.938;2022-10-31T04:36:48;13.50;;;10.13;;
20458;SDS011;10388;52.314;7.938;2022-10-31T04:39:18;16.37;;;11.73;;
20458;SDS011;10388;52.314;7.938;2022-10-31T04:41:49;21.40;;;10.60;;
20458;SDS011;10388;52.314;7.938;2022-10-31T04:44:19;18.00;;;10.73;;
20458;SDS011;10388;52.314;7.938;2022-10-31T04:46:50;19.23;;;12.03;;
20458;SDS011;10388;52.314;7.938;2022-10-31T04:49:20;19.63;;;11.10;;
20458;SDS011;10388;52.314;7.938;2022-10-31T04:51:51;21.90;;;12.33;;
20458;SDS011;10388;52.314;7.938;2022-10-31T04:54:21;21.03;;;11.23;;
20458;SDS011;10388;52.314;7.938;2022-10-31T04:56:52;20.07;;;11.53;;
20458;SDS011;10388;52.314;7.938;2022-10-31T04:59:22;17.33;;;10.97;;
20458;SDS011;10388;52.314;7.938;2022-10-31T05:01:53;20.27;;;11.53;;
20458;SDS011;10388;52.314;7.938;2022-10-31T05:04:24;18.27;;;11.90;;
20458;SDS011;10388;52.314;7.938;2022-10-31T05:06:54;19.93;;;11.63;;
20458;SDS011;10388;52.314;7.938;2022-10-31T05:09:25;20.97;;;11.57;;
20458;SDS011;10388;52.314;7.938;2022-10-31T05:11:55;21.43;;;10.97;;
20458;SDS011;10388;52.314;7.938;2022-10-31T05:14:26;18.63;;;12.07;;
20458;SDS011;10388;52.314;7.938;2022-10-31T05:16:56;16.13;;;11.00;;
20458;SDS011;10388;52.314;7.938;2022-10-31T05:19:27;16.23;;;10.90;;
20458;SDS011;10388;52.314;7.938;2022-10-31T05:21:57;20.03;;;11.37;;
20458;SDS011;10388;52.314;7.938;2022-10-31T05:24:28;17.47;;;11.53;;
20458;SDS011;10388;52.314;7.938;2022-10-31T05:26:58;22.37;;;12.03;;
20458;SDS011;10388;52.314;7.938;2022-10-31T05:29:29;20.23;;;11.87;;
20458;SDS011;10388;52.314;7.938;2022-10-31T05:32:03;19.73;;;11.67;;
20458;SDS011;10388;52.314;7.938;2022-10-31T05:34:33;17.87;;;11.30;;
20458;SDS011;10388;52.314;7.938;2022-10-31T05:37:04;18.93;;;11.90;;
20458;SDS011;10388;52.314;7.938;2022-10-31T05:39:34;21.37;;;11.87;;
20458;SDS011;10388;52.314;7.938;2022-10-31T05:42:05;22.73;;;12.87;;
20458;SDS011;10388;52.314;7.938;2022-10-31T05:44:35;19.77;;;12.73;;
20458;SDS011;10388;52.314;7.938;2022-10-31T05:47:06;19.80;;;13.13;;
20458;SDS011;10388;52.314;7.938;2022-10-31T05:49:36;18.57;;;12.27;;
20458;SDS011;10388;52.314;7.938;2022-10-31T05:52:07;18.10;;;12.40;;
20458;SDS011;10388;52.314;7.938;2022-10-31T05:54:37;21.57;;;13.23;;
20458;SDS011;10388;52.314;7.938;2022-10-31T05:57:08;29.40;;;14.33;;
20458;SDS011;10388;52.314;7.938;2022-10-31T05:59:39;48.83;;;16.87;;
20458;SDS011;10388;52.314;7.938;2022-10-31T06:02:09;29.43;;;14.80;;
20458;SDS011;10388;52.314;7.938;2022-10-31T06:04:40;29.47;;;15.23;;
20458;SDS011;10388;52.314;7.938;2022-10-31T06:07:10;26.73;;;13.90;;
20458;SDS011;10388;52.314;7.938;2022-10-31T06:09:41;26.77;;;14.67;;
20458;SDS011;10388;52.314;7.938;2022-10-31T06:12:11;25.20;;;15.43;;
20458;SDS011;10388;52.314;7.938;2022-10-31T06:14:42;31.40;;;15.50;;
20458;SDS011;10388;52.314;7.938;2022-10-31T06:17:12;28.70;;;14.97;;
20458;SDS011;10388;52.314;7.938;2022-10-31T06:19:43;22.47;;;14.90;;
20458;SDS011;10388;52.314;7.938;2022-10-31T06:22:13;30.73;;;16.63;;
20458;SDS011;10388;52.314;7.938;2022-10-31T06:24:44;34.30;;;16.00;;
20458;SDS011;10388;52.314;7.938;2022-10-31T06:27:14;30.90;;;15.97;;
20458;SDS011;10388;52.314;7.938;2022-10-31T06:29:45;29.43;;;15.60;;
20458;SDS011;10388;52.314;7.938;2022-10-31T06:32:16;22.83;;;13.57;;
20458;SDS011;10388;52.314;7.938;2022-10-31T06:34:47;25.50;;;14.63;;
20458;SDS011;10388;52.314;7.938;2022-10-31T06:37:20;21.87;;;14.93;;
20458;SDS011;10388;52.314;7.938;2022-10-31T06:39:50;23.87;;;14.70;;
20458;SDS011;10388;52.314;7.938;2022-10-31T06:42:21;24.77;;;15.10;;
20458;SDS011;10388;52.314;7.938;2022-10-31T06:44:51;25.27;;;14.93;;
20458;SDS011;10388;52.314;7.938;2022-10-31T06:47:22;25.17;;;15.30;;
20458;SDS011;10388;52.314;7.938;2022-10-31T06:49:52;22.23;;;15.17;;
20458;SDS011;10388;52.314;7.938;2022-10-31T06:52:23;27.77;;;16.20;;
20458;SDS011;10388;52.314;7.938;2022-10-31T06:54:53;26.50;;;15.97;;
20458;SDS011;10388;52.314;7.938;2022-10-31T06:57:24;25.53;;;15.73;;
20458;SDS011;10388;52.314;7.938;2022-10-31T06:59:54;24.83;;;16.40;;
20458;SDS011;10388;52.314;7.938;2022-10-31T07:02:25;22.27;;;15.67;;
20458;SDS011;10388;52.314;7.938;2022-10-31T07:04:55;26.90;;;17.10;;
20458;SDS011;10388;52.314;7.938;2022-10-31T07:07:26;29.77;;;17.87;;
20458;SDS011;10388;52.314;7.938;2022-10-31T07:09:56;29.00;;;17.23;;
20458;SDS011;10388;52.314;7.938;2022-10-31T07:12:27;25.70;;;16.37;;
20458;SDS011;10388;52.314;7.938;2022-10-31T07:14:57;24.33;;;16.53;;
20458;SDS011;10388;52.314;7.938;2022-10-31T07:17:28;23.90;;;16.17;;
20458;SDS011;10388;52.314;7.938;2022-10-31T07:19:58;25.10;;;16.50;;
20458;SDS011;10388;52.314;7.938;2022-10-31T07:22:33;24.63;;;17.00;;
20458;SDS011;10388;52.314;7.938;2022-10-31T07:25:04;26.63;;;17.50;;
20458;SDS011;10388;52.314;7.938;2022-10-31T07:27:39;29.93;;;18.43;;
20458;SDS011;10388;52.314;7.938;2022-10-31T07:30:11;30.97;;;18.80;;
20458;SDS011;10388;52.314;7.938;2022-10-31T07:32:43;33.07;;;21.23;;
20458;SDS011;10388;52.314;7.938;2022-10-31T07:35:16;36.93;;;23.10;;
20458;SDS011;10388;52.314;7.938;2022-10-31T07:37:51;30.23;;;19.83;;
20458;SDS011;10388;52.314;7.938;2022-10-31T07:40:22;33.37;;;20.90;;
20458;SDS011;10388;52.314;7.938;2022-10-31T07:42:53;29.33;;;20.00;;
20458;SDS011;10388;52.314;7.938;2022-10-31T07:45:24;30.27;;;20.00;;
20458;SDS011;10388;52.314;7.938;2022-10-31T07:47:54;31.70;;;19.90;;
20458;SDS011;10388;52.314;7.938;2022-10-31T07:50:26;31.40;;;19.93;;
20458;SDS011;10388;52.314;7.938;2022-10-31T07:52:59;31.00;;;19.63;;
20458;SDS011;10388;52.314;7.938;2022-10-31T07:55:32;30.30;;;20.27;;
20458;SDS011;10388;52.314;7.938;2022-10-31T08:00:39;35.17;;;20.70;;
20458;SDS011;10388;52.314;7.938;2022-10-31T08:03:12;33.90;;;21.27;;
20458;SDS011;10388;52.314;7.938;2022-10-31T08:05:44;32.93;;;21.80;;
20458;SDS011;10388;52.314;7.938;2022-10-31T08:08:15;32.53;;;21.10;;
20458;SDS011;10388;52.314;7.938;2022-10-31T08:10:46;34.33;;;21.47;;
20458;SDS011;10388;52.314;7.938;2022-10-31T08:13:17;32.30;;;21.07;;
20458;SDS011;10388;52.314;7.938;2022-10-31T08:15:47;37.07;;;22.53;;
20458;SDS011;10388;52.314;7.938;2022-10-31T08:18:20;33.17;;;22.00;;
20458;SDS011;10388;52.314;7.938;2022-10-31T08:20:53;30.20;;;21.33;;
20458;SDS011;10388;52.314;7.938;2022-10-31T08:23:24;37.27;;;23.37;;
20458;SDS011;10388;52.314;7.938;2022-10-31T08:25:54;33.53;;;22.37;;
20458;SDS011;10388;52.314;7.938;2022-10-31T08:28:25;34.80;;;22.57;;
20458;SDS011;10388;52.314;7.938;2022-10-31T08:30:57;33.87;;;22.73;;
20458;SDS011;10388;52.314;7.938;2022-10-31T08:33:28;34.93;;;22.73;;
20458;SDS011;10388;52.314;7.938;2022-10-31T08:35:58;30.83;;;21.23;;
20458;SDS011;10388;52.314;7.938;2022-10-31T08:38:29;33.60;;;22.57;;
20458;SDS011;10388;52.314;7.938;2022-10-31T08:40:59;34.33;;;22.03;;
20458;SDS011;10388;52.314;7.938;2022-10-31T08:43:30;34.10;;;22.33;;
20458;SDS011;10388;52.314;7.938;2022-10-31T08:46:00;33.20;;;21.37;;
20458;SDS011;10388;52.314;7.938;2022-10-31T08:48:32;30.83;;;21.17;;
20458;SDS011;10388;52.314;7.938;2022-10-31T08:51:02;32.07;;;21.93;;
20458;SDS011;10388;52.314;7.938;2022-10-31T08:53:33;32.50;;;22.37;;
20458;SDS011;10388;52.314;7.938;2022-10-31T08:56:03;28.87;;;20.57;;
20458;SDS011;10388;52.314;7.938;2022-10-31T08:58:35;36.73;;;22.00;;
20458;SDS011;10388;52.314;7.938;2022-10-31T09:01:06;33.70;;;21.20;;
20458;SDS011;10388;52.314;7.938;2022-10-31T09:03:37;28.40;;;21.40;;
20458;SDS011;10388;52.314;7.938;2022-10-31T09:06:07;29.83;;;20.87;;
20458;SDS011;10388;52.314;7.938;2022-10-31T09:08:38;29.40;;;21.07;;
20458;SDS011;10388;52.314;7.938;2022-10-31T09:11:09;29.87;;;21.00;;
20458;SDS011;10388;52.314;7.938;2022-10-31T09:13:39;26.30;;;19.73;;
20458;SDS011;10388;52.314;7.938;2022-10-31T09:16:10;30.13;;;20.93;;
20458;SDS011;10388;52.314;7.938;2022-10-31T09:18:40;28.03;;;19.70;;
20458;SDS011;10388;52.314;7.938;2022-10-31T09:21:11;25.97;;;19.47;;
20458;SDS011;10388;52.314;7.938;2022-10-31T09:23:41;26.13;;;19.67;;
20458;SDS011;10388;52.314;7.938;2022-10-31T09:26:12;26.97;;;19.93;;
20458;SDS011;10388;52.314;7.938;2022-10-31T09:28:42;29.37;;;20.93;;
20458;SDS011;10388;52.314;7.938;2022-10-31T09:31:14;30.90;;;20.87;;
20458;SDS011;10388;52.314;7.938;2022-10-31T09:33:45;30.17;;;20.77;;
20458;SDS011;10388;52.314;7.938;2022-10-31T09:36:15;26.70;;;18.67;;
20458;SDS011;10388;52.314;7.938;2022-10-31T09:38:46;26.70;;;19.40;;
20458;SDS011;10388;52.314;7.938;2022-10-31T09:41:19;26.20;;;18.13;;
20458;SDS011;10388;52.314;7.938;2022-10-31T09:44:18;24.67;;;18.73;;
20458;SDS011;10388;52.314;7.938;2022-10-31T09:47:10;24.40;;;18.50;;
20458;SDS011;10388;52.314;7.938;2022-10-31T09:50:11;24.50;;;18.27;;
20458;SDS011;10388;52.314;7.938;2022-10-31T09:52:54;27.77;;;19.37;;
20458;SDS011;10388;52.314;7.938;2022-10-31T09:58:08;24.93;;;17.97;;
20458;SDS011;10388;52.314;7.938;2022-10-31T10:00:45;23.60;;;17.13;;
20458;SDS011;10388;52.314;7.938;2022-10-31T10:08:40;22.03;;;16.47;;
20458;SDS011;10388;52.314;7.938;2022-10-31T10:17:10;22.17;;;15.90;;
20458;SDS011;10388;52.314;7.938;2022-10-31T10:23:17;21.13;;;15.63;;
20458;SDS011;10388;52.314;7.938;2022-10-31T10:25:52;22.70;;;14.90;;
20458;SDS011;10388;52.314;7.938;2022-10-31T10:28:35;20.60;;;14.43;;
20458;SDS011;10388;52.314;7.938;2022-10-31T10:33:47;17.87;;;13.83;;
20458;SDS011;10388;52.314;7.938;2022-10-31T10:36:40;19.40;;;14.07;;
20458;SDS011;10388;52.314;7.938;2022-10-31T10:39:35;23.13;;;14.27;;
20458;SDS011;10388;52.314;7.938;2022-10-31T10:42:16;18.83;;;14.73;;
20458;SDS011;10388;52.314;7.938;2022-10-31T10:47:41;21.27;;;14.93;;
20458;SDS011;10388;52.314;7.938;2022-10-31T10:50:15;18.77;;;15.33;;
20458;SDS011;10388;52.314;7.938;2022-10-31T10:55:38;20.47;;;15.63;;
20458;SDS011;10388;52.314;7.938;2022-10-31T10:58:26;20.70;;;15.53;;
20458;SDS011;10388;52.314;7.938;2022-10-31T11:00:56;20.00;;;14.27;;
20458;SDS011;10388;52.314;7.938;2022-10-31T11:03:27;21.40;;;16.57;;
20458;SDS011;10388;52.314;7.938;2022-10-31T11:05:57;20.67;;;14.63;;
20458;SDS011;10388;52.314;7.938;2022-10-31T11:08:35;18.67;;;14.47;;
20458;SDS011;10388;52.314;7.938;2022-10-31T11:11:25;18.67;;;13.93;;
20458;SDS011;10388;52.314;7.938;2022-10-31T11:14:00;17.43;;;14.00;;
20458;SDS011;10388;52.314;7.938;2022-10-31T11:16:37;22.33;;;14.50;;
20458;SDS011;10388;52.314;7.938;2022-10-31T11:21:51;20.90;;;14.73;;
20458;SDS011;10388;52.314;7.938;2022-10-31T11:24:23;20.20;;;14.50;;
20458;SDS011;10388;52.314;7.938;2022-10-31T11:30:03;20.93;;;13.00;;
20458;SDS011;10388;52.314;7.938;2022-10-31T11:32:35;18.70;;;13.37;;
20458;SDS011;10388;52.314;7.938;2022-10-31T11:35:08;16.57;;;13.23;;
20458;SDS011;10388;52.314;7.938;2022-10-31T11:37:41;18.37;;;13.93;;
20458;SDS011;10388;52.314;7.938;2022-10-31T11:40:18;19.33;;;14.87;;
20458;SDS011;10388;52.314;7.938;2022-10-31T11:42:52;12.07;;;9.93;;
20458;SDS011;10388;52.314;7.938;2022-10-31T11:45:29;8.70;;;6.50;;
20458;SDS011;10388;52.314;7.938;2022-10-31T11:48:13;6.83;;;4.70;;
20458;SDS011;10388;52.314;7.938;2022-10-31T11:50:48;7.47;;;3.90;;
20458;SDS011;10388;52.314;7.938;2022-10-31T11:53:27;5.70;;;3.80;;
20458;SDS011;10388;52.314;7.938;2022-10-31T11:56:05;11.47;;;6.30;;
20458;SDS011;10388;52.314;7.938;2022-10-31T11:58:59;10.33;;;6.33;;
20458;SDS011;10388;52.314;7.938;2022-10-31T12:01:32;8.63;;;6.27;;
20458;SDS011;10388;52.314;7.938;2022-10-31T12:06:41;10.63;;;6.70;;
20458;SDS011;10388;52.314;7.938;2022-10-31T12:09:20;10.03;;;6.87;;
20458;SDS011;10388;52.314;7.938;2022-10-31T12:14:43;10.77;;;7.13;;
20458;SDS011;10388;52.314;7.938;2022-10-31T12:17:23;9.93;;;6.77;;
20458;SDS011;10388;52.314;7.938;2022-10-31T12:20:10;9.23;;;6.47;;
20458;SDS011;10388;52.314;7.938;2022-10-31T12:45:05;9.50;;;6.10;;
20458;SDS011;10388;52.314;7.938;2022-10-31T12:48:07;8.93;;;6.77;;
20458;SDS011;10388;52.314;7.938;2022-10-31T12:51:12;9.50;;;6.67;;
20458;SDS011;10388;52.314;7.938;2022-10-31T12:59:59;7.97;;;4.90;;
20458;SDS011;10388;52.314;7.938;2022-10-31T13:02:48;5.40;;;3.27;;
20458;SDS011;10388;52.314;7.938;2022-10-31T13:05:30;6.90;;;3.40;;
20458;SDS011;10388;52.314;7.938;2022-10-31T13:08:17;4.87;;;3.40;;
20458;SDS011;10388;52.314;7.938;2022-10-31T13:11:11;7.70;;;3.40;;
20458;SDS011;10388;52.314;7.938;2022-10-31T13:16:33;6.53;;;3.50;;
20458;SDS011;10388;52.314;7.938;2022-10-31T13:22:05;6.47;;;3.77;;
20458;SDS011;10388;52.314;7.938;2022-10-31T13:24:58;5.90;;;4.77;;
20458;SDS011;10388;52.314;7.938;2022-10-31T13:30:16;6.83;;;5.00;;
20458;SDS011;10388;52.314;7.938;2022-10-31T13:35:40;9.03;;;4.90;;
20458;SDS011;10388;52.314;7.938;2022-10-31T13:38:27;9.20;;;5.00;;
20458;SDS011;10388;52.314;7.938;2022-10-31T13:44:20;8.50;;;5.50;;
20458;SDS011;10388;52.314;7.938;2022-10-31T13:46:54;9.37;;;6.77;;
20458;SDS011;10388;52.314;7.938;2022-10-31T14:02:52;12.77;;;9.03;;
20458;SDS011;10388;52.314;7.938;2022-10-31T14:05:29;15.07;;;8.60;;
20458;SDS011;10388;52.314;7.938;2022-10-31T14:08:03;14.03;;;8.70;;
20458;SDS011;10388;52.314;7.938;2022-10-31T14:10:36;12.27;;;8.63;;
20458;SDS011;10388;52.314;7.938;2022-10-31T14:13:18;14.93;;;8.27;;
20458;SDS011;10388;52.314;7.938;2022-10-31T14:16:00;12.77;;;9.33;;
20458;SDS011;10388;52.314;7.938;2022-10-31T14:18:35;18.17;;;9.37;;
20458;SDS011;10388;52.314;7.938;2022-10-31T14:23:53;14.73;;;8.60;;
20458;SDS011;10388;52.314;7.938;2022-10-31T14:28:59;13.43;;;8.77;;
20458;SDS011;10388;52.314;7.938;2022-10-31T14:31:52;12.73;;;9.20;;
20458;SDS011;10388;52.314;7.938;2022-10-31T14:34:32;12.90;;;8.40;;
20458;SDS011;10388;52.314;7.938;2022-10-31T14:46:30;14.87;;;8.77;;
20458;SDS011;10388;52.314;7.938;2022-10-31T14:52:20;13.83;;;8.20;;
20458;SDS011;10388;52.314;7.938;2022-10-31T14:54:54;12.20;;;8.77;;
20458;SDS011;10388;52.314;7.938;2022-10-31T14:57:30;14.97;;;8.77;;
20458;SDS011;10388;52.314;7.938;2022-10-31T15:00:05;16.50;;;9.50;;
20458;SDS011;10388;52.314;7.938;2022-10-31T15:02:41;13.27;;;8.87;;
20458;SDS011;10388;52.314;7.938;2022-10-31T15:05:19;13.47;;;8.23;;
20458;SDS011;10388;52.314;7.938;2022-10-31T15:07:51;16.47;;;9.53;;
20458;SDS011;10388;52.314;7.938;2022-10-31T15:10:27;13.97;;;8.97;;
20458;SDS011;10388;52.314;7.938;2022-10-31T15:13:08;13.07;;;9.23;;
20458;SDS011;10388;52.314;7.938;2022-10-31T15:15:40;14.17;;;9.57;;
20458;SDS011;10388;52.314;7.938;2022-10-31T15:18:17;12.60;;;9.20;;
20458;SDS011;10388;52.314;7.938;2022-10-31T15:20:52;18.13;;;8.57;;
20458;SDS011;10388;52.314;7.938;2022-10-31T15:23:25;14.20;;;8.97;;
20458;SDS011;10388;52.314;7.938;2022-10-31T15:26:02;15.23;;;9.27;;
20458;SDS011;10388;52.314;7.938;2022-10-31T15:28:34;14.87;;;9.30;;
20458;SDS011;10388;52.314;7.938;2022-10-31T15:31:05;14.27;;;8.97;;
20458;SDS011;10388;52.314;7.938;2022-10-31T15:33:46;17.13;;;9.10;;
20458;SDS011;10388;52.314;7.938;2022-10-31T15:36:23;11.93;;;8.63;;
20458;SDS011;10388;52.314;7.938;2022-10-31T15:38:57;12.93;;;7.57;;
20458;SDS011;10388;52.314;7.938;2022-10-31T15:41:29;12.43;;;8.53;;
20458;SDS011;10388;52.314;7.938;2022-10-31T15:44:13;13.70;;;8.57;;
20458;SDS011;10388;52.314;7.938;2022-10-31T15:46:59;11.40;;;8.60;;
20458;SDS011;10388;52.314;7.938;2022-10-31T15:49:36;12.10;;;8.63;;
20458;SDS011;10388;52.314;7.938;2022-10-31T15:55:03;12.67;;;8.17;;
20458;SDS011;10388;52.314;7.938;2022-10-31T15:57:51;13.83;;;8.00;;
20458;SDS011;10388;52.314;7.938;2022-10-31T16:00:25;12.43;;;7.73;;
20458;SDS011;10388;52.314;7.938;2022-10-31T16:05:50;15.03;;;8.40;;
20458;SDS011;10388;52.314;7.938;2022-10-31T16:10:59;13.77;;;9.80;;
20458;SDS011;10388;52.314;7.938;2022-10-31T16:13:37;13.50;;;8.87;;
20458;SDS011;10388;52.314;7.938;2022-10-31T16:16:22;16.20;;;8.50;;
20458;SDS011;10388;52.314;7.938;2022-10-31T16:18:53;15.70;;;9.57;;
20458;SDS011;10388;52.314;7.938;2022-10-31T16:21:29;12.13;;;7.70;;
20458;SDS011;10388;52.314;7.938;2022-10-31T16:24:14;12.47;;;8.37;;
20458;SDS011;10388;52.314;7.938;2022-10-31T16:27:00;12.20;;;7.90;;
20458;SDS011;10388;52.314;7.938;2022-10-31T16:29:44;14.90;;;9.60;;
20458;SDS011;10388;52.314;7.938;2022-10-31T16:32:28;13.20;;;8.93;;
20458;SDS011;10388;52.314;7.938;2022-10-31T16:35:25;11.97;;;8.20;;
20458;SDS011;10388;52.314;7.938;2022-10-31T16:37:58;12.73;;;8.40;;
20458;SDS011;10388;52.314;7.938;2022-10-31T16:40:29;12.13;;;7.67;;
20458;SDS011;10388;52.314;7.938;2022-10-31T16:43:00;10.73;;;7.53;;
20458;SDS011;10388;52.314;7.938;2022-10-31T16:45:31;13.13;;;8.20;;
20458;SDS011;10388;52.314;7.938;2022-10-31T16:48:08;14.13;;;8.90;;
20458;SDS011;10388;52.314;7.938;2022-10-31T16:50:42;11.40;;;9.10;;
20458;SDS011;10388;52.314;7.938;2022-10-31T16:53:13;20.50;;;11.23;;
20458;SDS011;10388;52.314;7.938;2022-10-31T16:55:52;14.20;;;9.27;;
20458;SDS011;10388;52.314;7.938;2022-10-31T16:58:30;14.37;;;9.50;;
20458;SDS011;10388;52.314;7.938;2022-10-31T17:01:04;17.03;;;9.90;;
20458;SDS011;10388;52.314;7.938;2022-10-31T17:03:36;13.47;;;9.63;;
20458;SDS011;10388;52.314;7.938;2022-10-31T17:06:15;14.67;;;9.00;;
20458;SDS011;10388;52.314;7.938;2022-10-31T17:08:46;15.23;;;9.00;;
20458;SDS011;10388;52.314;7.938;2022-10-31T17:11:18;14.67;;;9.07;;
20458;SDS011;10388;52.314;7.938;2022-10-31T17:13:52;15.63;;;9.37;;
20458;SDS011;10388;52.314;7.938;2022-10-31T17:16:23;13.40;;;8.27;;
20458;SDS011;10388;52.314;7.938;2022-10-31T17:18:54;12.63;;;8.90;;
20458;SDS011;10388;52.314;7.938;2022-10-31T17:21:24;11.60;;;9.23;;
20458;SDS011;10388;52.314;7.938;2022-10-31T17:23:56;13.30;;;9.57;;
20458;SDS011;10388;52.314;7.938;2022-10-31T17:26:27;15.03;;;9.60;;
20458;SDS011;10388;52.314;7.938;2022-10-31T17:28:57;14.43;;;8.83;;
20458;SDS011;10388;52.314;7.938;2022-10-31T17:31:31;14.43;;;9.33;;
20458;SDS011;10388;52.314;7.938;2022-10-31T17:34:03;17.43;;;9.47;;
20458;SDS011;10388;52.314;7.938;2022-10-31T17:36:35;16.60;;;9.17;;
20458;SDS011;10388;52.314;7.938;2022-10-31T17:39:06;14.80;;;8.97;;
20458;SDS011;10388;52.314;7.938;2022-10-31T17:41:38;12.73;;;8.17;;
20458;SDS011;10388;52.314;7.938;2022-10-31T17:44:09;12.47;;;8.60;;
20458;SDS011;10388;52.314;7.938;2022-10-31T17:46:40;20.13;;;8.43;;
20458;SDS011;10388;52.314;7.938;2022-10-31T17:49:11;16.57;;;8.10;;
20458;SDS011;10388;52.314;7.938;2022-10-31T17:51:41;12.60;;;8.27;;
20458;SDS011;10388;52.314;7.938;2022-10-31T17:54:12;13.30;;;8.63;;
20458;SDS011;10388;52.314;7.938;2022-10-31T17:56:42;12.37;;;7.77;;
20458;SDS011;10388;52.314;7.938;2022-10-31T17:59:13;21.70;;;8.87;;